createdAt,value
2023-11-18T00:00:56.997Z,55.70
2023-11-18T00:03:23.624Z,55.50
2023-11-18T00:05:50.182Z,55.40
2023-11-18T00:08:16.699Z,55.50
2023-11-18T00:10:43.218Z,55.50
2023-11-18T00:13:09.739Z,55.60
2023-11-18T00:15:36.278Z,55.70
2023-11-18T00:18:02.864Z,55.30
2023-11-18T00:20:29.390Z,55.40
2023-11-18T00:22:55.946Z,55.60
2023-11-18T00:25:22.547Z,55.60
2023-11-18T00:27:49.080Z,55.50
2023-11-18T00:30:15.609Z,55.60
2023-11-18T00:32:42.386Z,55.20
2023-11-18T00:35:09.065Z,55.20
2023-11-18T00:37:35.626Z,55.30
2023-11-18T00:40:02.198Z,55.40
2023-11-18T00:42:28.713Z,55.90
2023-11-18T00:44:55.235Z,55.30
2023-11-18T00:47:21.876Z,55.50
2023-11-18T00:49:48.501Z,55.70
2023-11-18T00:52:15.080Z,55.60
2023-11-18T00:54:41.596Z,55.50
2023-11-18T00:57:08.112Z,55.30
2023-11-18T00:59:34.637Z,55.20
2023-11-18T01:02:01.202Z,55.00
2023-11-18T01:04:30.170Z,55.30
2023-11-18T01:06:56.706Z,55.30
2023-11-18T01:09:23.219Z,55.20
2023-11-18T01:12:07.417Z,55.10
2023-11-18T01:14:35.672Z,54.90
2023-11-18T01:17:02.447Z,55.30
2023-11-18T01:19:29.049Z,55.30
2023-11-18T01:21:55.598Z,54.80
2023-11-18T01:24:22.119Z,54.80
2023-11-18T01:26:48.646Z,54.80
2023-11-18T01:29:15.190Z,54.80
2023-11-18T01:31:50.137Z,54.70
2023-11-18T01:34:19.191Z,54.80
2023-11-18T01:36:45.747Z,54.80
2023-11-18T01:39:12.264Z,54.60
2023-11-18T01:41:38.830Z,54.40
2023-11-18T01:44:05.391Z,54.50
2023-11-18T01:46:32.004Z,54.40
2023-11-18T01:48:58.586Z,54.30
2023-11-18T01:51:25.122Z,54.30
2023-11-18T01:53:51.651Z,54.40
2023-11-18T01:56:18.191Z,54.50
2023-11-18T01:58:44.737Z,54.30
2023-11-18T02:01:11.364Z,54.30
2023-11-18T02:03:38.271Z,54.30
2023-11-18T02:06:04.844Z,54.40
2023-11-18T02:08:31.364Z,54.20
2023-11-18T02:10:57.943Z,54.50
2023-11-18T02:13:24.460Z,54.30
2023-11-18T02:15:51.014Z,54.30
2023-11-18T02:18:17.600Z,54.50
2023-11-18T02:20:44.210Z,54.30
2023-11-18T02:23:10.725Z,54.40
2023-11-18T02:25:37.279Z,54.10
2023-11-18T02:28:06.221Z,54.10
2023-11-18T02:30:32.748Z,54.10
2023-11-18T02:32:59.360Z,54.30
2023-11-18T02:35:25.917Z,54.20
2023-11-18T02:37:52.571Z,54.20
2023-11-18T02:40:19.222Z,54.00
2023-11-18T02:42:45.761Z,54.30
2023-11-18T02:45:12.425Z,54.30
2023-11-18T02:47:38.965Z,54.10
2023-11-18T02:50:05.585Z,54.40
2023-11-18T02:52:32.131Z,54.10
2023-11-18T02:54:58.673Z,54.10
2023-11-18T02:57:25.194Z,54.70
2023-11-18T02:59:51.716Z,54.70
2023-11-18T03:02:18.324Z,54.30
2023-11-18T03:04:44.905Z,54.20
2023-11-18T03:07:11.431Z,54.10
2023-11-18T03:09:37.954Z,54.30
2023-11-18T03:12:04.482Z,54.20
2023-11-18T03:14:31.012Z,54.30
2023-11-18T03:16:57.578Z,54.10
2023-11-18T03:19:24.114Z,54.20
2023-11-18T03:21:50.658Z,54.10
2023-11-18T03:24:17.170Z,54.70
2023-11-18T03:26:43.707Z,54.00
2023-11-18T03:29:10.240Z,54.50
2023-11-18T03:31:36.817Z,54.20
2023-11-18T03:34:03.453Z,54.00
2023-11-18T03:36:30.015Z,54.00
2023-11-18T03:38:56.684Z,54.40
2023-11-18T03:41:23.243Z,53.80
2023-11-18T03:43:49.817Z,54.50
2023-11-18T03:46:16.438Z,54.00
2023-11-18T03:48:42.981Z,53.90
2023-11-18T03:51:09.520Z,53.80
2023-11-18T03:53:36.048Z,54.10
2023-11-18T03:56:02.606Z,54.50
2023-11-18T03:58:29.138Z,54.20
2023-11-18T04:00:55.653Z,54.20
2023-11-18T04:03:22.162Z,54.10
2023-11-18T04:05:48.675Z,54.30
2023-11-18T04:08:15.238Z,54.00
2023-11-18T04:10:41.786Z,54.00
2023-11-18T04:13:08.345Z,53.70
2023-11-18T04:15:34.862Z,54.00
2023-11-18T04:18:01.449Z,54.00
2023-11-18T04:20:27.976Z,54.10
2023-11-18T04:22:54.529Z,54.00
2023-11-18T04:25:21.070Z,54.00
2023-11-18T04:27:47.589Z,53.80
2023-11-18T04:30:14.463Z,54.00
2023-11-18T04:32:41.177Z,53.70
2023-11-18T04:35:07.843Z,53.80
2023-11-18T04:37:34.497Z,53.80
2023-11-18T04:40:01.052Z,53.70
2023-11-18T04:42:27.573Z,53.90
2023-11-18T04:44:54.096Z,53.70
2023-11-18T04:47:20.723Z,53.90
2023-11-18T04:49:47.295Z,53.90
2023-11-18T04:52:13.853Z,53.80
2023-11-18T04:54:40.363Z,53.80
2023-11-18T04:57:06.881Z,53.60
2023-11-18T04:59:33.395Z,53.40
2023-11-18T05:01:59.980Z,54.20
2023-11-18T05:04:26.556Z,54.20
2023-11-18T05:06:53.066Z,53.90
2023-11-18T05:09:19.692Z,53.70
2023-11-18T05:11:46.264Z,53.60
2023-11-18T05:14:12.817Z,53.80
2023-11-18T05:16:39.359Z,53.60
2023-11-18T05:19:05.891Z,53.90
2023-11-18T05:21:32.409Z,53.70
2023-11-18T05:23:58.921Z,53.60
2023-11-18T05:26:25.448Z,53.50
2023-11-18T05:28:52.012Z,53.80
2023-11-18T05:31:18.547Z,53.80
2023-11-18T05:33:45.048Z,53.90
2023-11-18T05:36:11.550Z,53.80
2023-11-18T05:38:38.053Z,53.50
2023-11-18T05:41:04.707Z,53.90
2023-11-18T05:43:31.327Z,53.60
2023-11-18T05:45:57.852Z,53.90
2023-11-18T05:48:24.372Z,54.10
2023-11-18T05:50:50.889Z,54.00
2023-11-18T05:53:17.416Z,53.80
2023-11-18T05:55:43.963Z,53.90
2023-11-18T05:58:10.489Z,54.20
2023-11-18T06:00:41.630Z,54.20
2023-11-18T06:03:08.696Z,54.10
2023-11-18T06:05:35.290Z,53.90
2023-11-18T06:08:01.848Z,53.50
2023-11-18T06:10:31.401Z,53.70
2023-11-18T06:12:57.894Z,53.60
2023-11-18T06:15:24.397Z,53.80
2023-11-18T06:17:51.025Z,53.60
2023-11-18T06:20:17.669Z,53.50
2023-11-18T06:22:44.225Z,53.70
2023-11-18T06:25:10.764Z,53.80
2023-11-18T06:27:37.284Z,53.70
2023-11-18T06:30:03.801Z,53.70
2023-11-18T06:32:30.342Z,53.70
2023-11-18T06:34:56.877Z,53.80
2023-11-18T06:37:23.459Z,53.50
2023-11-18T06:39:49.993Z,53.70
2023-11-18T06:42:16.583Z,53.80
2023-11-18T06:44:43.129Z,53.70
2023-11-18T06:47:09.741Z,53.80
2023-11-18T06:52:20.378Z,53.70
2023-11-18T06:54:46.912Z,53.60
2023-11-18T06:57:13.469Z,53.60
2023-11-18T06:59:40.286Z,54.00
2023-11-18T07:02:07.690Z,53.90
2023-11-18T07:04:34.418Z,53.90
2023-11-18T07:07:00.925Z,53.90
2023-11-18T07:09:27.465Z,53.80
2023-11-18T07:11:55.093Z,53.80
2023-11-18T07:14:21.717Z,53.80
2023-11-18T07:16:48.287Z,53.80
2023-11-18T07:19:14.854Z,53.70
2023-11-18T07:21:41.365Z,53.80
2023-11-18T07:24:07.911Z,53.70
2023-11-18T07:26:34.439Z,53.80
2023-11-18T07:29:01.021Z,53.80
2023-11-18T07:31:27.593Z,53.80
2023-11-18T07:33:54.150Z,53.90
2023-11-18T07:36:20.658Z,53.80
2023-11-18T07:38:47.207Z,53.80
2023-11-18T07:41:13.805Z,53.80
2023-11-18T07:43:40.376Z,53.90
2023-11-18T07:46:06.940Z,53.90
2023-11-18T07:48:33.487Z,53.90
2023-11-18T07:51:00.013Z,54.10
2023-11-18T07:53:26.614Z,54.00
2023-11-18T07:55:53.124Z,53.90
2023-11-18T07:58:19.699Z,53.90
2023-11-18T08:00:46.242Z,53.90
2023-11-18T08:03:13.036Z,53.80
2023-11-18T08:05:39.742Z,53.90
2023-11-18T08:08:06.269Z,54.00
2023-11-18T08:10:32.809Z,53.90
2023-11-18T08:12:59.327Z,53.90
2023-11-18T08:15:25.842Z,53.80
2023-11-18T08:17:52.457Z,53.90
2023-11-18T08:20:19.082Z,53.90
2023-11-18T08:22:45.859Z,54.10
2023-11-18T08:25:12.638Z,54.10
2023-11-18T08:27:39.147Z,54.20
2023-11-18T08:30:05.658Z,54.10
2023-11-18T08:32:32.289Z,54.10
2023-11-18T08:34:58.863Z,54.00
2023-11-18T08:37:25.391Z,54.00
2023-11-18T08:39:51.909Z,53.90
2023-11-18T08:42:18.510Z,54.00
2023-11-18T08:44:45.363Z,54.00
2023-11-18T08:47:11.998Z,54.00
2023-11-18T08:49:38.535Z,54.00
2023-11-18T08:52:05.111Z,54.10
2023-11-18T08:54:31.629Z,54.10
2023-11-18T08:56:58.151Z,54.10
2023-11-18T08:59:24.675Z,54.10
2023-11-18T09:01:51.264Z,54.10
2023-11-18T09:04:17.901Z,54.20
2023-11-18T09:06:44.459Z,54.40
2023-11-18T09:09:10.977Z,54.40
2023-11-18T09:11:37.499Z,54.40
2023-11-18T09:14:04.039Z,54.40
2023-11-18T09:16:31.042Z,54.60
2023-11-18T09:18:58.022Z,54.50
2023-11-18T09:21:24.552Z,54.60
2023-11-18T09:23:51.084Z,54.50
2023-11-18T09:26:17.643Z,54.60
2023-11-18T09:28:44.238Z,54.70
2023-11-18T09:31:10.790Z,54.70
2023-11-18T09:33:37.342Z,54.60
2023-11-18T09:36:03.902Z,54.70
2023-11-18T09:38:30.428Z,54.80
2023-11-18T09:40:56.980Z,54.70
2023-11-18T09:43:23.549Z,54.80
2023-11-18T09:45:50.146Z,54.80
2023-11-18T09:48:16.707Z,54.70
2023-11-18T09:50:43.263Z,54.80
2023-11-18T09:53:09.877Z,54.80
2023-11-18T09:55:36.402Z,54.80
2023-11-18T09:58:02.918Z,54.80
2023-11-18T10:00:29.439Z,54.70
2023-11-18T10:02:56.074Z,55.00
2023-11-18T10:05:22.666Z,54.90
2023-11-18T10:07:49.196Z,54.70
2023-11-18T10:10:15.872Z,54.90
2023-11-18T10:12:42.531Z,54.70
2023-11-18T10:15:09.055Z,54.80
2023-11-18T10:17:35.625Z,54.90
2023-11-18T10:20:02.303Z,54.90
2023-11-18T10:22:29.172Z,54.90
2023-11-18T10:24:55.945Z,55.10
2023-11-18T10:27:22.481Z,55.00
2023-11-18T10:29:49.006Z,54.90
2023-11-18T10:32:15.533Z,55.00
2023-11-18T10:34:42.049Z,55.00
2023-11-18T10:37:08.594Z,55.10
2023-11-18T10:39:35.102Z,55.20
2023-11-18T10:42:01.629Z,55.30
2023-11-18T10:44:28.181Z,55.30
2023-11-18T10:46:54.794Z,55.30
2023-11-18T10:49:21.416Z,55.40
2023-11-18T10:51:47.952Z,55.50
2023-11-18T10:54:14.454Z,55.40
2023-11-18T10:56:42.613Z,55.40
2023-11-18T10:59:09.292Z,55.50
2023-11-18T11:01:35.932Z,55.60
2023-11-18T11:04:04.630Z,55.50
2023-11-18T11:06:31.250Z,55.70
2023-11-18T11:08:57.843Z,55.50
2023-11-18T11:11:24.372Z,55.70
2023-11-18T11:13:50.933Z,55.90
2023-11-18T11:16:17.502Z,55.80
2023-11-18T11:18:44.052Z,55.80
2023-11-18T11:21:10.594Z,55.80
2023-11-18T11:23:37.107Z,55.90
2023-11-18T11:26:03.630Z,55.90
2023-11-18T11:28:30.198Z,56.00
2023-11-18T11:30:56.759Z,55.90
2023-11-18T11:33:23.304Z,56.10
2023-11-18T11:35:49.817Z,56.10
2023-11-18T11:38:16.410Z,56.00
2023-11-18T11:40:42.968Z,55.90
2023-11-18T11:43:09.489Z,56.00
2023-11-18T11:45:35.993Z,55.80
2023-11-18T11:48:02.591Z,55.90
2023-11-18T11:50:29.215Z,55.80
2023-11-18T11:52:55.811Z,55.90
2023-11-18T11:55:22.362Z,55.90
2023-11-18T11:57:48.876Z,55.90
2023-11-18T12:00:15.397Z,56.00
2023-11-18T12:02:42.067Z,55.90
2023-11-18T12:05:08.720Z,56.00
2023-11-18T12:07:35.331Z,56.20
2023-11-18T12:10:01.865Z,56.00
2023-11-18T12:12:28.416Z,56.00
2023-11-18T12:14:54.936Z,56.10
2023-11-18T12:17:21.517Z,56.10
2023-11-18T12:19:48.593Z,56.30
2023-11-18T12:22:15.359Z,56.30
2023-11-18T12:24:41.892Z,56.30
2023-11-18T12:27:08.432Z,56.40
2023-11-18T12:29:34.965Z,56.40
2023-11-18T12:32:01.556Z,56.50
2023-11-18T12:34:28.117Z,56.60
2023-11-18T12:36:54.627Z,56.80
2023-11-18T12:39:21.129Z,56.90
2023-11-18T12:41:47.643Z,56.70
2023-11-18T12:44:14.173Z,56.80
2023-11-18T12:46:40.725Z,57.00
2023-11-18T12:49:07.259Z,57.10
2023-11-18T12:51:33.790Z,57.10
2023-11-18T12:54:00.341Z,57.20
2023-11-18T12:56:26.869Z,57.20
2023-11-18T12:58:53.466Z,57.20
2023-11-18T13:01:20.157Z,57.30
2023-11-18T13:03:46.921Z,57.50
2023-11-18T13:06:13.500Z,57.40
2023-11-18T13:08:39.994Z,57.60
2023-11-18T13:11:06.632Z,57.40
2023-11-18T13:13:33.265Z,57.60
2023-11-18T13:15:59.817Z,57.40
2023-11-18T13:18:26.343Z,57.50
2023-11-18T13:20:52.844Z,57.60
2023-11-18T13:23:19.434Z,57.70
2023-11-18T13:25:46.021Z,57.90
2023-11-18T13:28:12.555Z,57.70
2023-11-18T13:30:40.703Z,57.80
2023-11-18T13:33:07.696Z,57.90
2023-11-18T13:35:34.290Z,57.80
2023-11-18T13:38:00.917Z,58.00
2023-11-18T13:40:27.483Z,58.10
2023-11-18T13:42:53.993Z,58.00
2023-11-18T13:45:30.560Z,58.00
2023-11-18T13:48:02.735Z,57.90
2023-11-18T13:50:29.256Z,58.10
2023-11-18T13:52:55.806Z,58.20
2023-11-18T13:55:22.337Z,58.20
2023-11-18T13:57:48.862Z,58.20
2023-11-18T14:00:15.361Z,58.10
2023-11-18T14:02:41.979Z,58.30
2023-11-18T14:05:08.631Z,58.30
2023-11-18T14:07:35.145Z,58.30
2023-11-18T14:10:01.677Z,58.30
2023-11-18T14:12:28.186Z,58.30
2023-11-18T14:14:54.682Z,58.20
2023-11-18T14:17:21.257Z,58.50
2023-11-18T14:19:47.768Z,58.50
2023-11-18T14:22:14.285Z,58.60
2023-11-18T14:24:40.811Z,58.60
2023-11-18T14:27:07.328Z,58.60
2023-11-18T14:29:33.856Z,58.70
2023-11-18T14:32:00.483Z,58.70
2023-11-18T14:34:27.015Z,58.70
2023-11-18T14:36:53.541Z,58.90
2023-11-18T14:39:20.066Z,58.80
2023-11-18T14:41:46.591Z,58.80
2023-11-18T14:44:13.170Z,58.80
2023-11-18T14:46:41.459Z,58.60
2023-11-18T14:49:08.288Z,59.00
2023-11-18T14:51:34.805Z,58.80
2023-11-18T14:54:01.328Z,58.90
2023-11-18T14:56:27.897Z,58.90
2023-11-18T14:58:54.497Z,59.00
2023-11-18T15:01:21.082Z,59.00
2023-11-18T15:03:47.699Z,58.80
2023-11-18T15:06:14.282Z,59.00
2023-11-18T15:08:43.856Z,59.00
2023-11-18T15:11:12.352Z,59.00
2023-11-18T15:13:38.908Z,59.10
2023-11-18T15:16:05.410Z,59.00
2023-11-18T15:18:31.995Z,59.10
2023-11-18T15:20:58.540Z,59.30
2023-11-18T15:23:25.093Z,59.40
2023-11-18T15:25:51.677Z,59.40
2023-11-18T15:28:18.226Z,59.50
2023-11-18T15:30:44.772Z,59.50
2023-11-18T15:33:11.340Z,59.50
2023-11-18T15:35:37.877Z,59.70
2023-11-18T15:38:04.460Z,59.80
2023-11-18T15:40:30.981Z,59.80
2023-11-18T15:42:57.520Z,59.80
2023-11-18T15:45:24.017Z,59.90
2023-11-18T15:47:50.675Z,60.10
2023-11-18T15:50:17.457Z,60.10
2023-11-18T15:52:44.168Z,60.00
2023-11-18T15:55:10.689Z,59.90
2023-11-18T15:57:37.222Z,60.00
2023-11-18T16:00:03.745Z,60.00
2023-11-18T16:02:30.328Z,59.80
2023-11-18T16:04:56.964Z,59.70
2023-11-18T16:07:23.488Z,59.80
2023-11-18T16:09:50.018Z,59.90
2023-11-18T16:12:16.535Z,59.80
2023-11-18T16:14:44.230Z,59.80
2023-11-18T16:17:12.148Z,59.80
2023-11-18T16:19:38.687Z,59.90
2023-11-18T16:22:05.205Z,59.90
2023-11-18T16:27:15.683Z,60.00
2023-11-18T16:29:42.194Z,59.80
2023-11-18T16:32:08.773Z,60.00
2023-11-18T16:34:35.307Z,59.80
2023-11-18T16:37:01.826Z,60.10
2023-11-18T16:39:28.336Z,60.20
2023-11-18T16:41:54.889Z,60.20
2023-11-18T16:44:21.461Z,60.10
2023-11-18T16:46:48.032Z,60.00
2023-11-18T16:49:14.581Z,60.00
2023-11-18T16:51:41.095Z,60.10
2023-11-18T16:54:07.600Z,60.20
2023-11-18T16:56:34.153Z,60.30
2023-11-18T16:59:00.713Z,60.20
2023-11-18T17:01:27.273Z,60.30
2023-11-18T17:03:53.904Z,60.10
2023-11-18T17:06:20.541Z,60.30
2023-11-18T17:08:47.132Z,60.20
2023-11-18T17:11:13.689Z,60.20
2023-11-18T17:13:40.225Z,60.20
2023-11-18T17:16:06.752Z,60.20
2023-11-18T17:18:33.290Z,60.10
2023-11-18T17:20:59.826Z,60.30
2023-11-18T17:23:26.435Z,60.20
2023-11-18T17:25:52.984Z,60.40
2023-11-18T17:28:19.497Z,60.50
2023-11-18T17:30:46.023Z,60.30
2023-11-18T17:33:12.551Z,60.10
2023-11-18T17:35:39.109Z,60.30
2023-11-18T17:38:05.660Z,60.30
2023-11-18T17:40:32.187Z,60.30
2023-11-18T17:42:58.745Z,60.40
2023-11-18T17:45:25.855Z,60.40
2023-11-18T17:47:52.529Z,60.50
2023-11-18T17:50:19.178Z,60.40
2023-11-18T17:52:49.147Z,60.20
2023-11-18T17:55:15.670Z,60.40
2023-11-18T17:57:42.188Z,60.40
2023-11-18T18:00:08.697Z,60.40
2023-11-18T18:02:35.308Z,60.40
2023-11-18T18:05:01.925Z,60.40
2023-11-18T18:07:28.453Z,60.40
2023-11-18T18:09:54.996Z,60.50
2023-11-18T18:12:21.505Z,60.40
2023-11-18T18:14:48.036Z,60.50
2023-11-18T18:17:14.581Z,60.40
2023-11-18T18:19:41.141Z,60.40
2023-11-18T18:22:07.653Z,60.50
2023-11-18T18:24:34.177Z,60.40
2023-11-18T18:27:00.723Z,60.40
2023-11-18T18:29:27.352Z,60.40
2023-11-18T18:31:53.924Z,60.40
2023-11-18T18:34:20.449Z,60.70
2023-11-18T18:36:46.987Z,60.50
2023-11-18T18:39:13.491Z,60.40
2023-11-18T18:41:40.002Z,60.40
2023-11-18T18:44:06.546Z,60.70
2023-11-18T18:46:33.084Z,60.60
2023-11-18T18:48:59.605Z,60.80
2023-11-18T18:51:26.131Z,60.80
2023-11-18T18:53:52.648Z,60.80
2023-11-18T18:56:19.315Z,61.00
2023-11-18T18:58:45.881Z,61.00
2023-11-18T19:01:12.435Z,60.90
2023-11-18T19:03:39.055Z,61.10
2023-11-18T19:06:05.643Z,61.00
2023-11-18T19:08:32.184Z,61.00
2023-11-18T19:10:58.788Z,61.00
2023-11-18T19:13:25.338Z,60.90
2023-11-18T19:15:51.879Z,60.90
2023-11-18T19:18:18.432Z,61.00
2023-11-18T19:20:45.039Z,60.90
2023-11-18T19:23:11.619Z,61.00
2023-11-18T19:25:38.196Z,61.20
2023-11-18T19:28:04.760Z,61.30
2023-11-18T19:30:31.350Z,61.20
2023-11-18T19:32:57.910Z,61.00
2023-11-18T19:35:24.499Z,61.20
2023-11-18T19:37:51.036Z,61.00
2023-11-18T19:40:17.558Z,61.30
2023-11-18T19:42:44.062Z,61.50
2023-11-18T19:45:10.605Z,61.40
2023-11-18T19:47:37.194Z,61.30
2023-11-18T19:50:03.814Z,61.40
2023-11-18T19:52:30.366Z,61.20
2023-11-18T19:54:56.877Z,61.10
2023-11-18T19:57:23.402Z,61.40
2023-11-18T19:59:49.911Z,61.30
2023-11-18T20:02:16.467Z,61.30
2023-11-18T20:04:43.081Z,61.30
2023-11-18T20:07:09.626Z,61.20
2023-11-18T20:09:36.153Z,61.30
2023-11-18T20:12:05.764Z,61.40
2023-11-18T20:14:32.430Z,61.30
2023-11-18T20:16:58.979Z,61.30
2023-11-18T20:19:25.539Z,61.20
2023-11-18T20:21:52.043Z,61.30
2023-11-18T20:24:18.582Z,61.40
2023-11-18T20:26:45.076Z,61.30
2023-11-18T20:29:11.626Z,61.40
2023-11-18T20:31:38.161Z,61.50
2023-11-18T20:34:04.739Z,61.30
2023-11-18T20:36:31.286Z,61.40
2023-11-18T20:38:57.824Z,61.60
2023-11-18T20:41:24.404Z,61.40
2023-11-18T20:43:50.937Z,61.40
2023-11-18T20:46:17.516Z,61.60
2023-11-18T20:48:44.090Z,61.40
2023-11-18T20:51:10.645Z,61.70
2023-11-18T20:53:37.210Z,61.50
2023-11-18T20:56:03.851Z,61.30
2023-11-18T20:58:30.428Z,61.50
2023-11-18T21:00:56.970Z,61.60
2023-11-18T21:03:23.663Z,61.60
2023-11-18T21:05:50.556Z,61.40
2023-11-18T21:08:17.409Z,61.60
2023-11-18T21:10:44.000Z,61.70
2023-11-18T21:13:10.518Z,61.70
2023-11-18T21:15:37.052Z,61.40
2023-11-18T21:18:03.715Z,61.60
2023-11-18T21:20:30.297Z,61.60
2023-11-18T21:22:56.835Z,61.40
2023-11-18T21:25:23.359Z,61.80
2023-11-18T21:27:49.886Z,61.60
2023-11-18T21:30:16.408Z,61.70
2023-11-18T21:32:43.061Z,61.80
2023-11-18T21:35:09.790Z,61.60
2023-11-18T21:37:36.340Z,61.80
2023-11-18T21:40:02.868Z,61.60
2023-11-18T21:42:29.374Z,61.70
2023-11-18T21:44:55.916Z,61.50
2023-11-18T21:47:22.450Z,61.70
2023-11-18T21:52:18.408Z,61.50
2023-11-18T21:54:44.916Z,61.90
2023-11-18T21:57:11.421Z,62.00
2023-11-18T21:59:38.026Z,62.10
2023-11-18T22:02:04.693Z,61.70
2023-11-18T22:04:31.312Z,61.90
2023-11-18T22:06:57.828Z,62.00
2023-11-18T22:09:24.361Z,62.20
2023-11-18T22:11:50.900Z,61.70
2023-11-18T22:14:17.510Z,62.00
2023-11-18T22:16:44.109Z,62.20
2023-11-18T22:19:10.634Z,62.10
2023-11-18T22:21:37.157Z,62.20
2023-11-18T22:24:03.705Z,62.10
2023-11-18T22:26:30.241Z,62.20
2023-11-18T22:28:56.765Z,62.20
2023-11-18T22:31:23.297Z,62.10
2023-11-18T22:33:49.847Z,62.00
2023-11-18T22:36:16.390Z,62.30
2023-11-18T22:38:42.938Z,62.60
2023-11-18T22:41:09.469Z,62.50
2023-11-18T22:43:36.010Z,62.50
2023-11-18T22:46:02.648Z,62.40
2023-11-18T22:48:29.289Z,62.70
2023-11-18T22:50:55.828Z,62.70
2023-11-18T22:53:22.366Z,62.70
2023-11-18T22:55:49.033Z,62.50
2023-11-18T22:58:15.601Z,62.40
2023-11-18T23:00:42.128Z,62.80
2023-11-18T23:03:08.898Z,63.00
2023-11-18T23:05:35.561Z,63.10
2023-11-18T23:08:02.075Z,63.10
2023-11-18T23:10:28.588Z,63.00
2023-11-18T23:12:55.090Z,62.90
2023-11-18T23:15:21.603Z,63.10
2023-11-18T23:17:48.196Z,63.30
2023-11-18T23:20:14.824Z,63.10
2023-11-18T23:22:41.338Z,63.20
2023-11-18T23:25:07.904Z,63.30
2023-11-18T23:27:34.431Z,63.30
2023-11-18T23:30:00.930Z,63.30
2023-11-18T23:32:27.433Z,63.30
2023-11-18T23:34:53.972Z,63.70
2023-11-18T23:37:20.545Z,63.50
2023-11-18T23:39:47.125Z,63.80
2023-11-18T23:42:13.646Z,63.80
2023-11-18T23:44:40.195Z,64.00
2023-11-18T23:47:06.793Z,63.90
2023-11-18T23:49:33.358Z,63.90
2023-11-18T23:51:59.907Z,63.70
2023-11-18T23:54:26.463Z,63.50
2023-11-18T23:56:52.984Z,63.50
2023-11-18T23:59:19.518Z,63.90
